EKSP/SKS METAR and TAF weather

Enter ICAO airport designator
Station Type Date Time Source
EKSP METAR 2018/07/16 23:50 UTC NOAA

EKSP 162350Z 00000KT CAVOK 14/11 Q1014


Station Type Date Time Source
EKSP Decoded METAR 2018/07/16 23:50 UTC NOAA

Skrydstrup, Denmark (EKSP) 55-14N 009-16E 47M
Jul 16, 2018 - 07:50 PM EDT / 2018.07.16 2350 UTC
Wind: Calm:0
Visibility: greater than 7 mile(s):0
Temperature: 57 F (14 C)
Dew Point: 51 F (11 C)
Relative Humidity: 82%
Pressure (altimeter): 29.94 in. Hg (1014 hPa)
ob: EKSP 162350Z 00000KT CAVOK 14/11 Q1014
cycle: 0

Station Type Date Time Source
EKSP TAF 2018/07/16 21:31 UTC NOAA

TAF EKSP 162025Z 1621/1718 VRB05KT 9999 FEW075
TEMPO 1714/1716 26010KT


Example: see airport list